KRRL/RRL METAR and TAF weather

Enter ICAO airport designator
Station Type Date Time Source
KRRL METAR 2020/10/29 17:15 UTC NOAA

KRRL 291715Z AUTO 05008KT 10SM OVC031 00/M06 A3007 RMK AO2 T00021065 TSNO


Station Type Date Time Source
KRRL Decoded METAR 2020/10/29 17:15 UTC NOAA

Merrill, Merrill Municipal Airport, WI, United States (KRRL) 45-11N 089-42W
Oct 29, 2020 - 01:15 PM EDT / 2020.10.29 1715 UTC
Wind: from the NE (050 degrees) at 9 MPH (8 KT):0
Visibility: 10 mile(s):0
Sky conditions: overcast
Temperature: 32.4 F (0.2 C)
Windchill: 24 F (-4 C):1
Dew Point: 20.3 F (-6.5 C)
Relative Humidity: 60%
Pressure (altimeter): 30.07 in. Hg (1018 hPa)
ob: KRRL 291715Z AUTO 05008KT 10SM OVC031 00/M06 A3007 RMK AO2 T00021065 TSNO
cycle: 17

Station Type Date Time Source
KRRL TAF UTC NOAA

Error!

Example: see airport list